Time;durP1;ratioP1;P1;durP2;ratioP2;P2;SDS_P1;SDS_P2;PMS_P1;PMS_P2;Temp;Humidity;BMP_temperature;BMP_pressure;BME280_temperature;BME280_humidity;BME280_pressure;Samples;Min_cycle;Max_cycle;Signal;HPM_P1;HPM_P2
2021/12/02 00:01:43;;;;;;;0.40;0.40;;;;;;;7.75;86.74;94581.72;5036924;28;20220;-75
2021/12/02 00:04:11;;;;;;;0.63;0.63;;;;;;;8.04;87.01;94571.66;5037214;28;20201;-73
2021/12/02 00:06:38;;;;;;;0.60;0.60;;;;;;;7.80;87.11;94576.66;5038331;28;20300;-71
2021/12/02 00:09:04;;;;;;;0.40;0.40;;;;;;;8.01;86.00;94573.88;5037392;28;20235;-72
2021/12/02 00:11:31;;;;;;;0.30;0.30;;;;;;;7.96;86.46;94576.28;5037443;28;20201;-77
2021/12/02 00:14:00;;;;;;;0.40;0.40;;;;;;;7.96;85.92;94578.91;5037555;28;21285;-76
2021/12/02 00:16:33;;;;;;;0.40;0.40;;;;;;;8.34;85.70;94574.69;5038904;28;20201;-69
2021/12/02 00:21:52;;;;;;;0.30;0.30;;;;;;;8.12;86.67;94583.75;5038112;28;20212;-72
2021/12/02 00:24:20;;;;;;;0.30;0.30;;;;;;;8.02;87.00;94593.84;5036713;28;20569;-76
2021/12/02 00:26:49;;;;;;;0.30;0.30;;;;;;;7.84;88.22;94601.50;5037359;28;20310;-76
2021/12/02 00:29:18;;;;;;;0.60;0.50;;;;;;;7.91;89.74;94610.19;5038687;28;20229;-71
2021/12/02 00:31:45;;;;;;;0.40;0.40;;;;;;;7.36;91.19;94633.22;5038095;28;20296;-75
2021/12/02 00:34:11;;;;;;;0.30;0.30;;;;;;;6.45;91.02;94631.91;5036633;28;20232;-70
2021/12/02 00:36:40;;;;;;;0.30;0.30;;;;;;;6.36;93.86;94634.88;5041648;28;20201;-72
2021/12/02 00:39:11;;;;;;;0.40;0.40;;;;;;;6.57;95.07;94632.19;5045422;28;20197;-75
2021/12/02 00:41:37;;;;;;;0.27;0.27;;;;;;;6.28;95.33;94635.81;5044988;28;20201;-71
2021/12/02 00:44:04;;;;;;;0.30;0.30;;;;;;;6.25;96.60;94633.59;5045307;28;20209;-70
2021/12/02 00:46:32;;;;;;;0.40;0.40;;;;;;;6.35;96.21;94635.88;5046656;28;20205;-72
2021/12/02 00:49:02;;;;;;;0.40;0.40;;;;;;;6.38;96.41;94625.84;5048535;28;20303;-72
2021/12/02 00:51:29;;;;;;;0.30;0.30;;;;;;;6.38;96.64;94632.91;5047461;28;20197;-70
2021/12/02 00:53:56;;;;;;;0.30;0.30;;;;;;;6.36;96.78;94634.88;5046388;28;20209;-71
2021/12/02 00:56:25;;;;;;;0.37;0.37;;;;;;;6.56;96.90;94634.00;5045646;28;20212;-71
2021/12/02 00:58:53;;;;;;;0.20;0.20;;;;;;;6.36;97.75;94633.06;5046754;28;20201;-72
2021/12/02 01:01:21;;;;;;;0.37;0.37;;;;;;;6.47;97.30;94640.38;5045320;28;20291;-73
2021/12/02 01:03:50;;;;;;;0.33;0.33;;;;;;;6.35;98.41;94649.78;5045479;28;20566;-72
2021/12/02 01:06:17;;;;;;;0.30;0.30;;;;;;;6.35;99.04;94647.16;5047447;28;20304;-70
2021/12/02 01:08:44;;;;;;;0.20;0.20;;;;;;;6.19;98.59;94647.41;5045162;28;20221;-72
2021/12/02 01:11:12;;;;;;;0.30;0.30;;;;;;;6.47;98.12;94643.00;5046953;28;20201;-72
2021/12/02 01:13:40;;;;;;;0.23;0.23;;;;;;;6.51;98.16;94635.59;5046962;28;20733;-73
2021/12/02 01:16:07;;;;;;;0.30;0.30;;;;;;;6.30;97.99;94633.00;5047714;28;20587;-70
2021/12/02 01:18:33;;;;;;;0.30;0.30;;;;;;;6.41;97.84;94627.28;5047629;28;20216;-73
2021/12/02 01:21:03;;;;;;;0.30;0.30;;;;;;;6.53;97.27;94634.41;5045813;28;20232;-73
2021/12/02 01:23:33;;;;;;;0.23;0.23;;;;;;;6.48;97.62;94636.78;5045361;28;20208;-73
2021/12/02 01:26:04;;;;;;;0.20;0.20;;;;;;;6.62;97.07;94638.50;5044736;28;20237;-76
2021/12/02 01:28:31;;;;;;;0.57;0.47;;;;;;;6.33;97.31;94646.53;5043650;28;20221;-77
2021/12/02 01:30:59;;;;;;;0.37;0.37;;;;;;;6.51;97.76;94644.25;5045011;28;20208;-73
2021/12/02 01:33:28;;;;;;;0.30;0.30;;;;;;;6.68;97.01;94642.94;5039404;28;20204;-69
2021/12/02 01:35:56;;;;;;;0.20;0.20;;;;;;;6.58;97.15;94642.50;5041590;28;20228;-73
2021/12/02 01:38:24;;;;;;;0.40;0.40;;;;;;;6.55;96.95;94632.38;5041047;28;20202;-71
2021/12/02 01:40:52;;;;;;;6.47;0.47;;;;;;;6.64;96.70;94626.00;5040526;28;20227;-77
2021/12/02 01:43:20;;;;;;;0.30;0.30;;;;;;;6.53;97.09;94623.94;5039965;28;20201;-71
2021/12/02 01:45:47;;;;;;;0.20;0.20;;;;;;;6.46;96.96;94623.06;5041694;28;20226;-76
2021/12/02 01:48:25;;;;;;;0.27;0.27;;;;;;;6.96;95.32;94617.53;5039547;28;20205;-71
2021/12/02 01:51:01;;;;;;;0.30;0.30;;;;;;;6.80;96.95;94623.09;5039984;28;20705;-71
2021/12/02 01:53:31;;;;;;;0.23;0.23;;;;;;;6.78;96.69;94622.47;5038596;28;20209;-73
2021/12/02 01:56:09;;;;;;;0.50;0.40;;;;;;;6.90;94.89;94632.22;5040432;28;20236;-77
2021/12/02 01:58:41;;;;;;;0.40;0.40;;;;;;;6.68;96.42;94635.91;5040754;28;20203;-79
2021/12/02 02:01:13;;;;;;;0.50;0.50;;;;;;;6.58;97.32;94629.41;5040392;28;20667;-71
2021/12/02 02:03:42;;;;;;;0.30;0.30;;;;;;;6.74;96.55;94623.88;5038280;28;20197;-71
2021/12/02 02:06:09;;;;;;;0.40;0.30;;;;;;;6.61;95.70;94623.78;5038918;28;20900;-78
2021/12/02 02:08:42;;;;;;;0.30;0.30;;;;;;;6.79;95.64;94624.09;5038443;28;20205;-74
2021/12/02 02:11:08;;;;;;;0.20;0.20;;;;;;;6.48;95.55;94631.56;5038323;28;20217;-71
2021/12/02 02:13:35;;;;;;;0.33;0.33;;;;;;;6.23;95.69;94630.34;5038066;28;20638;-72
2021/12/02 02:16:01;;;;;;;0.30;0.30;;;;;;;6.48;95.65;94620.25;5038407;28;20225;-76
2021/12/02 02:18:28;;;;;;;0.20;0.20;;;;;;;6.44;94.59;94624.25;5038520;28;20204;-72
2021/12/02 02:21:00;;;;;;;0.30;0.30;;;;;;;6.92;94.89;94619.72;5038173;28;20205;-70
2021/12/02 02:23:29;;;;;;;0.30;0.30;;;;;;;6.50;95.34;94613.84;5037429;28;20208;-71
2021/12/02 02:25:56;;;;;;;0.40;0.40;;;;;;;6.39;95.29;94611.78;5040087;28;20225;-77
2021/12/02 02:28:23;;;;;;;0.30;0.30;;;;;;;6.34;95.67;94614.16;5041035;28;20215;-77
2021/12/02 02:30:49;;;;;;;0.30;0.30;;;;;;;6.44;94.35;94614.63;5041871;28;20225;-75
2021/12/02 02:33:18;;;;;;;1.47;0.47;;;;;;;6.49;94.58;94617.47;5038465;28;20601;-73
2021/12/02 02:35:45;;;;;;;0.60;0.60;;;;;;;6.57;93.69;94614.72;5041358;28;20217;-70
2021/12/02 02:38:14;;;;;;;0.47;0.47;;;;;;;6.74;94.28;94610.78;5040951;28;20282;-77
2021/12/02 02:40:44;;;;;;;0.40;0.40;;;;;;;6.63;93.34;94613.13;5042246;28;20205;-77
2021/12/02 02:43:11;;;;;;;0.20;0.20;;;;;;;6.38;94.29;94610.16;5041955;28;20323;-77
2021/12/02 02:45:38;;;;;;;0.37;0.37;;;;;;;6.51;94.40;94617.28;5041181;28;20239;-71
2021/12/02 02:48:06;;;;;;;0.40;0.40;;;;;;;6.34;94.34;94622.00;5041521;28;20245;-72
2021/12/02 02:50:33;;;;;;;0.30;0.30;;;;;;;6.47;94.04;94616.84;5040787;28;20221;-71
2021/12/02 02:53:05;;;;;;;0.93;0.70;;;;;;;6.71;93.83;94630.28;5039843;28;20216;-75
2021/12/02 02:55:34;;;;;;;1.03;0.70;;;;;;;6.64;93.14;94620.78;5040809;28;20235;-70
2021/12/02 02:58:05;;;;;;;0.50;0.50;;;;;;;6.44;93.57;94619.84;5040991;28;20212;-70
2021/12/02 03:00:34;;;;;;;0.50;0.50;;;;;;;6.33;93.83;94622.97;5041310;28;20230;-71
2021/12/02 03:03:16;;;;;;;0.77;0.60;;;;;;;6.36;93.85;94625.22;5039135;28;20204;-70
2021/12/02 03:05:55;;;;;;;0.40;0.40;;;;;;;6.13;94.20;94631.69;5041112;28;20217;-70
2021/12/02 03:08:30;;;;;;;0.57;0.57;;;;;;;6.24;94.37;94618.09;5040266;28;20201;-72
2021/12/02 03:10:59;;;;;;;1.10;0.73;;;;;;;6.40;94.47;94618.63;5040300;28;20224;-72
2021/12/02 03:13:36;;;;;;;0.30;0.30;;;;;;;6.33;94.23;94624.81;5039897;28;20205;-70
2021/12/02 03:18:51;;;;;;;0.60;0.53;;;;;;;6.03;93.63;94628.56;5039775;28;20216;-70
2021/12/02 03:21:18;;;;;;;0.57;0.57;;;;;;;6.42;93.64;94631.50;5039980;28;20209;-71
2021/12/02 03:23:49;;;;;;;0.30;0.30;;;;;;;6.52;93.84;94632.78;5039605;28;20201;-72
2021/12/02 03:26:17;;;;;;;0.37;0.37;;;;;;;6.26;94.67;94642.22;5040816;28;20225;-76
2021/12/02 03:28:44;;;;;;;0.30;0.30;;;;;;;6.00;94.68;94631.56;5041438;28;20295;-76
2021/12/02 03:31:11;;;;;;;0.30;0.30;;;;;;;6.15;94.35;94624.47;5041078;28;20221;-76
2021/12/02 03:33:37;;;;;;;1.33;0.97;;;;;;;5.97;94.69;94626.72;5036429;28;20208;-70
2021/12/02 03:36:04;;;;;;;0.50;0.50;;;;;;;6.01;94.92;94621.91;5039243;28;20243;-75
2021/12/02 03:38:30;;;;;;;0.40;0.40;;;;;;;5.78;94.59;94623.91;5040305;28;20204;-72
2021/12/02 03:40:57;;;;;;;0.30;0.30;;;;;;;6.02;94.48;94613.91;5039816;28;20673;-73
2021/12/02 03:43:27;;;;;;;0.40;0.40;;;;;;;6.41;94.44;94614.97;5038356;28;20409;-71
2021/12/02 03:45:54;;;;;;;0.70;0.67;;;;;;;6.08;94.13;94613.97;5039392;28;20623;-73
2021/12/02 03:48:20;;;;;;;0.33;0.33;;;;;;;6.13;94.96;94608.94;5035796;28;21215;-77
2021/12/02 03:50:47;;;;;;;0.37;0.37;;;;;;;6.06;95.01;94613.31;5039373;28;20220;-77
2021/12/02 03:53:13;;;;;;;0.53;0.53;;;;;;;5.93;95.11;94611.59;5038708;28;20197;-76
2021/12/02 03:55:40;;;;;;;0.30;0.30;;;;;;;5.84;95.67;94610.09;5039037;28;20228;-71
2021/12/02 03:58:06;;;;;;;0.20;0.20;;;;;;;5.64;96.83;94609.91;5039494;28;20216;-75
2021/12/02 04:00:34;;;;;;;0.83;0.80;;;;;;;6.14;96.10;94621.03;5039484;28;20280;-72
2021/12/02 04:03:01;;;;;;;0.40;0.40;;;;;;;5.79;96.40;94617.69;5039027;28;20227;-75
2021/12/02 04:05:27;;;;;;;0.40;0.40;;;;;;;5.75;96.94;94619.03;5039665;28;20221;-79
2021/12/02 04:07:54;;;;;;;0.47;0.47;;;;;;;5.94;96.37;94611.41;5039310;28;20288;-70
2021/12/02 04:10:22;;;;;;;0.30;0.30;;;;;;;5.84;96.53;94618.78;5039195;28;20221;-78
2021/12/02 04:12:54;;;;;;;0.20;0.20;;;;;;;5.93;97.26;94619.44;5038881;28;20675;-77
2021/12/02 04:15:24;;;;;;;0.97;0.70;;;;;;;5.91;97.27;94608.38;5039005;28;20312;-76
2021/12/02 04:17:52;;;;;;;0.30;0.30;;;;;;;6.08;96.61;94621.78;5040095;28;20318;-69
2021/12/02 04:20:21;;;;;;;0.40;0.40;;;;;;;6.30;96.41;94623.38;5038826;28;20205;-73
2021/12/02 04:22:49;;;;;;;0.33;0.33;;;;;;;6.12;96.36;94623.03;5040018;28;20220;-78
2021/12/02 04:25:17;;;;;;;0.30;0.30;;;;;;;5.95;96.29;94622.69;5039160;28;20592;-73
2021/12/02 04:27:44;;;;;;;1.57;0.50;;;;;;;5.88;96.81;94620.00;5039278;28;20209;-70
2021/12/02 04:30:14;;;;;;;0.33;0.33;;;;;;;6.13;96.84;94616.78;5038756;28;20236;-70
2021/12/02 04:32:41;;;;;;;0.67;0.67;;;;;;;6.10;96.44;94611.16;5035460;28;20220;-72
2021/12/02 04:35:11;;;;;;;6.27;1.17;;;;;;;6.09;97.30;94615.56;5038122;28;20224;-75
2021/12/02 04:37:38;;;;;;;0.20;0.20;;;;;;;5.82;97.21;94622.56;5038525;28;20211;-73
2021/12/02 04:40:05;;;;;;;0.70;0.70;;;;;;;5.98;96.13;94619.69;5038474;28;20212;-77
2021/12/02 04:42:32;;;;;;;1.43;0.50;;;;;;;5.94;95.89;94627.09;5037508;28;20201;-75
2021/12/02 04:44:59;;;;;;;0.40;0.40;;;;;;;5.90;95.86;94622.44;5038242;28;20342;-79
2021/12/02 04:47:26;;;;;;;0.40;0.40;;;;;;;5.73;95.60;94623.66;5038518;28;20216;-74
2021/12/02 04:49:52;;;;;;;4.63;1.37;;;;;;;5.93;96.07;94622.03;5037898;28;20229;-77
2021/12/02 04:55:46;;;;;;;0.50;0.50;;;;;;;6.33;94.82;94620.38;5040904;28;20209;-68
2021/12/02 05:01:50;;;;;;;1.53;0.90;;;;;;;6.40;95.51;94623.84;5064542;28;20199;-67
2021/12/02 05:08:33;;;;;;;1.40;1.13;;;;;;;6.66;93.96;94629.25;5064485;28;20259;-68
2021/12/02 05:14:49;;;;;;;1.20;0.83;;;;;;;6.51;93.68;94635.59;5048556;28;20235;-67
2021/12/02 05:17:30;;;;;;;1.17;1.07;;;;;;;6.39;94.74;94624.84;5029073;28;20182;-68
2021/12/02 05:23:01;;;;;;;0.90;0.83;;;;;;;6.37;94.14;94623.41;5060715;28;20206;-68
2021/12/02 05:35:28;;;;;;;1.40;1.27;;;;;;;6.25;94.57;94636.22;5058320;28;20212;-68
2021/12/02 05:38:34;;;;;;;4.30;3.20;;;;;;;6.69;93.18;94631.47;5063808;28;20192;-68
2021/12/02 05:41:14;;;;;;;4.57;2.97;;;;;;;6.38;93.94;94625.03;5064342;28;20197;-68
2021/12/02 05:44:26;;;;;;;3.77;2.13;;;;;;;6.42;93.29;94631.50;5063460;28;20190;-67
2021/12/02 05:46:54;;;;;;;2.73;1.80;;;;;;;6.44;94.18;94640.78;5036228;28;20673;-72
2021/12/02 05:49:21;;;;;;;1.40;1.30;;;;;;;6.20;94.00;94641.19;5036386;28;20201;-72
2021/12/02 05:51:47;;;;;;;2.27;1.77;;;;;;;6.28;94.20;94641.06;5036637;28;20225;-72
2021/12/02 05:54:14;;;;;;;10.63;3.03;;;;;;;6.14;94.52;94641.94;5035554;28;20278;-72
2021/12/02 05:56:41;;;;;;;2.63;1.53;;;;;;;6.24;94.30;94639.00;5035881;28;20201;-72
2021/12/02 05:59:08;;;;;;;1.47;1.37;;;;;;;6.33;93.73;94633.44;5037264;28;20613;-72
2021/12/02 06:01:34;;;;;;;0.90;0.90;;;;;;;6.25;94.15;94636.22;5040619;28;20240;-72
2021/12/02 06:04:02;;;;;;;1.87;1.10;;;;;;;6.28;94.91;94635.81;5039348;28;20220;-72
2021/12/02 06:06:29;;;;;;;1.43;1.07;;;;;;;6.29;93.68;94636.66;5040448;28;20205;-72
2021/12/02 06:08:55;;;;;;;11.60;1.13;;;;;;;6.13;94.41;94627.25;5039821;28;20215;-72
2021/12/02 06:11:23;;;;;;;2.33;1.10;;;;;;;6.21;94.44;94628.91;5040061;28;20221;-72
2021/12/02 06:13:49;;;;;;;2.60;0.77;;;;;;;6.04;94.41;94632.00;5039749;28;20201;-72
2021/12/02 06:16:16;;;;;;;1.27;0.93;;;;;;;6.00;95.61;94630.78;5039499;28;20792;-72
2021/12/02 06:18:43;;;;;;;0.50;0.50;;;;;;;5.79;95.58;94636.81;5040005;28;20208;-73
2021/12/02 06:21:11;;;;;;;1.67;1.57;;;;;;;5.94;95.81;94634.91;5040274;28;20300;-73
2021/12/02 06:23:40;;;;;;;1.13;0.90;;;;;;;5.93;95.38;94627.28;5038649;28;20213;-73
2021/12/02 06:26:06;;;;;;;2.13;1.10;;;;;;;5.91;95.11;94631.91;5039790;28;20225;-73
2021/12/02 06:28:33;;;;;;;0.70;0.70;;;;;;;6.06;94.96;94629.00;5039453;28;20345;-73
2021/12/02 06:31:02;;;;;;;1.23;0.93;;;;;;;5.90;94.56;94631.06;5039357;28;20221;-73
2021/12/02 06:33:28;;;;;;;0.57;0.57;;;;;;;6.03;94.32;94623.34;5036918;28;20642;-73
2021/12/02 06:35:55;;;;;;;0.50;0.50;;;;;;;6.00;94.18;94620.31;5040345;28;20834;-73
2021/12/02 06:38:22;;;;;;;1.27;0.63;;;;;;;6.02;95.59;94626.16;5039951;28;20204;-73
2021/12/02 06:40:49;;;;;;;1.23;0.80;;;;;;;5.72;94.82;94635.09;5039528;28;20662;-72
2021/12/02 06:43:16;;;;;;;1.63;0.83;;;;;;;5.62;95.20;94624.13;5038857;28;20208;-73
2021/12/02 06:45:42;;;;;;;0.77;0.67;;;;;;;5.83;95.20;94616.31;5039609;28;20236;-73
2021/12/02 06:48:09;;;;;;;3.50;0.93;;;;;;;5.64;94.56;94627.38;5039255;28;20681;-73
2021/12/02 06:50:37;;;;;;;0.70;0.70;;;;;;;5.85;94.71;94622.19;5039358;28;20240;-73
2021/12/02 06:53:04;;;;;;;1.07;0.97;;;;;;;5.75;94.77;94621.66;5038438;28;20205;-73
2021/12/02 06:55:33;;;;;;;0.57;0.57;;;;;;;5.61;96.67;94625.94;5039573;28;20221;-73
2021/12/02 06:58:00;;;;;;;0.60;0.60;;;;;;;5.50;95.92;94623.03;5039332;28;20205;-73
2021/12/02 07:00:28;;;;;;;0.90;0.50;;;;;;;5.87;95.23;94618.38;5039023;28;20200;-73
2021/12/02 07:02:55;;;;;;;0.90;0.90;;;;;;;5.54;94.74;94629.50;5038449;28;20993;-73
2021/12/02 07:05:22;;;;;;;4.27;1.07;;;;;;;5.62;95.34;94624.13;5039635;28;20234;-73
2021/12/02 07:07:49;;;;;;;0.77;0.77;;;;;;;5.67;93.99;94632.22;5037301;28;20205;-73
2021/12/02 07:10:18;;;;;;;0.83;0.83;;;;;;;5.98;93.99;94633.53;5039364;28;20211;-73
2021/12/02 07:12:49;;;;;;;1.60;0.87;;;;;;;5.86;94.35;94634.25;5037760;28;20259;-73
2021/12/02 07:15:17;;;;;;;2.20;0.70;;;;;;;5.72;93.83;94635.91;5037667;28;20783;-72
2021/12/02 07:17:45;;;;;;;2.30;1.23;;;;;;;6.00;93.52;94628.16;5038128;28;20208;-72
2021/12/02 07:20:12;;;;;;;0.73;0.70;;;;;;;5.91;93.82;94632.69;5038551;28;20282;-72
2021/12/02 07:22:38;;;;;;;1.10;1.00;;;;;;;5.83;93.68;94634.63;5040975;28;20197;-71
2021/12/02 07:25:06;;;;;;;1.30;0.53;;;;;;;6.11;92.41;94631.88;5043065;28;21123;-72
2021/12/02 07:27:33;;;;;;;0.80;0.80;;;;;;;5.79;93.79;94636.00;5042461;28;20201;-71
2021/12/02 07:30:01;;;;;;;3.43;0.77;;;;;;;6.08;93.59;94634.88;5042755;28;20212;-70
2021/12/02 07:32:35;;;;;;;0.60;0.60;;;;;;;6.20;93.17;94632.56;5041356;28;20953;-74
2021/12/02 07:35:05;;;;;;;0.50;0.40;;;;;;;6.07;93.28;94643.72;5043041;28;20250;-73
2021/12/02 07:37:32;;;;;;;0.57;0.57;;;;;;;6.08;92.35;94642.72;5043022;28;20213;-75
2021/12/02 07:40:01;;;;;;;1.07;0.90;;;;;;;5.98;93.65;94653.66;5042733;28;20209;-71
2021/12/02 07:42:27;;;;;;;0.87;0.87;;;;;;;5.70;93.68;94647.53;5043183;28;20200;-71
2021/12/02 07:44:55;;;;;;;1.33;1.07;;;;;;;5.94;93.63;94644.59;5044067;28;21252;-74
2021/12/02 07:47:24;;;;;;;0.90;0.70;;;;;;;6.10;93.61;94651.16;5043493;28;20865;-70
2021/12/02 07:49:51;;;;;;;4.90;1.90;;;;;;;5.86;93.24;94657.78;5043066;28;20292;-73
2021/12/02 07:52:20;;;;;;;2.30;1.07;;;;;;;6.19;93.12;94644.81;5041581;28;20580;-71
2021/12/02 07:54:50;;;;;;;2.83;1.00;;;;;;;5.90;94.05;94643.34;5041798;28;20279;-71
2021/12/02 07:57:17;;;;;;;2.27;1.37;;;;;;;5.83;94.39;94645.06;5042705;28;20205;-76
2021/12/02 07:59:44;;;;;;;0.50;0.50;;;;;;;5.61;93.92;94648.63;5043729;28;20209;-70
2021/12/02 08:02:15;;;;;;;1.40;1.23;;;;;;;6.07;92.74;94651.53;5042258;28;20209;-75
2021/12/02 08:04:43;;;;;;;1.77;0.90;;;;;;;5.95;93.37;94654.84;5041860;28;20217;-73
2021/12/02 08:07:10;;;;;;;1.57;1.40;;;;;;;5.81;93.05;94654.91;5042032;28;20642;-72
2021/12/02 08:09:37;;;;;;;1.80;1.03;;;;;;;6.04;92.10;94658.94;5041444;28;20205;-72
2021/12/02 08:12:04;;;;;;;0.50;0.50;;;;;;;6.04;92.26;94655.53;5037696;28;20582;-72
2021/12/02 08:14:31;;;;;;;2.00;0.97;;;;;;;5.98;92.13;94661.50;5037355;28;20217;-72
2021/12/02 08:16:57;;;;;;;0.70;0.70;;;;;;;5.97;92.17;94657.28;5038013;28;20660;-72
2021/12/02 08:19:23;;;;;;;0.93;0.93;;;;;;;6.25;91.15;94646.66;5037606;28;20205;-72
2021/12/02 08:21:51;;;;;;;1.30;0.60;;;;;;;6.67;90.54;94649.19;5037504;28;20201;-72
2021/12/02 08:24:21;;;;;;;1.27;1.17;;;;;;;6.34;90.36;94660.41;5035857;28;20324;-72
2021/12/02 08:26:48;;;;;;;19.00;1.70;;;;;;;6.49;90.96;94651.50;5037325;28;20212;-72
2021/12/02 08:29:15;;;;;;;8.57;1.00;;;;;;;6.16;92.08;94657.44;5037185;28;20216;-72
2021/12/02 08:31:42;;;;;;;0.30;0.30;;;;;;;6.15;91.38;94654.03;5037516;28;20267;-72
2021/12/02 08:34:09;;;;;;;1.23;0.60;;;;;;;6.12;91.59;94651.78;5033767;28;20213;-72
2021/12/02 08:36:42;;;;;;;0.80;0.73;;;;;;;6.63;90.89;94653.16;5037311;28;20213;-72
2021/12/02 08:39:16;;;;;;;2.43;1.17;;;;;;;6.61;91.21;94647.34;5037294;28;21048;-72
2021/12/02 08:41:45;;;;;;;2.03;1.23;;;;;;;6.61;90.87;94651.78;5037434;28;20363;-72
2021/12/02 08:44:12;;;;;;;0.70;0.70;;;;;;;6.46;91.17;94659.69;5036077;28;20205;-72
2021/12/02 08:46:39;;;;;;;0.97;0.77;;;;;;;6.82;90.65;94657.72;5037037;28;20201;-72
2021/12/02 08:49:06;;;;;;;1.33;1.03;;;;;;;6.85;91.13;94652.91;5039692;28;20579;-74
2021/12/02 08:51:33;;;;;;;0.50;0.50;;;;;;;6.53;91.63;94654.50;5040506;28;20721;-71
2021/12/02 08:53:59;;;;;;;0.50;0.50;;;;;;;6.51;90.76;94651.28;5038747;28;20205;-72
2021/12/02 08:56:28;;;;;;;1.17;1.07;;;;;;;6.55;91.52;94652.53;5040351;28;20201;-76
2021/12/02 08:58:54;;;;;;;0.30;0.30;;;;;;;6.16;91.84;94660.88;5039436;28;20217;-72
2021/12/02 09:01:21;;;;;;;2.10;0.90;;;;;;;6.55;91.53;94661.16;5037079;28;20219;-71
2021/12/02 09:03:48;;;;;;;1.93;0.90;;;;;;;6.30;90.47;94664.41;5035437;28;20220;-71
2021/12/02 09:06:19;;;;;;;2.10;0.70;;;;;;;6.23;91.75;94656.50;5035749;28;20232;-71
2021/12/02 09:08:45;;;;;;;0.70;0.60;;;;;;;6.20;90.87;94679.63;5036014;28;20590;-71
2021/12/02 09:11:12;;;;;;;0.67;0.67;;;;;;;6.28;90.27;94661.19;5037246;28;20224;-71
2021/12/02 09:13:40;;;;;;;0.40;0.40;;;;;;;6.16;91.62;94663.50;5035706;28;20216;-71
2021/12/02 09:16:06;;;;;;;0.50;0.50;;;;;;;6.13;91.38;94663.06;5035626;28;20720;-71
2021/12/02 09:18:33;;;;;;;3.40;0.53;;;;;;;5.87;91.80;94665.44;5036140;28;20228;-71
2021/12/02 09:20:59;;;;;;;0.80;0.80;;;;;;;6.26;90.87;94647.47;5036429;28;20202;-71
2021/12/02 09:23:26;;;;;;;1.33;1.00;;;;;;;6.28;91.02;94651.50;5035441;28;20228;-71
2021/12/02 09:25:53;;;;;;;1.53;1.43;;;;;;;6.70;90.02;94656.66;5036591;28;20248;-71
2021/12/02 09:28:20;;;;;;;0.57;0.57;;;;;;;6.63;89.00;94655.78;5036330;28;20213;-72
2021/12/02 09:30:49;;;;;;;0.60;0.60;;;;;;;7.00;89.20;94663.25;5035426;28;20201;-70
2021/12/02 09:33:16;;;;;;;0.63;0.63;;;;;;;6.65;88.49;94651.19;5031949;28;20937;-70
2021/12/02 09:35:42;;;;;;;1.47;0.97;;;;;;;6.81;88.76;94656.09;5035670;28;20220;-70
2021/12/02 09:38:10;;;;;;;0.40;0.40;;;;;;;6.66;88.81;94656.22;5036343;28;20212;-71
2021/12/02 09:40:39;;;;;;;3.23;1.80;;;;;;;6.97;88.53;94655.81;5036669;28;20205;-71
2021/12/02 09:43:05;;;;;;;2.83;0.90;;;;;;;6.63;87.91;94644.53;5035511;28;20240;-71
2021/12/02 09:45:32;;;;;;;5.70;0.80;;;;;;;6.65;88.39;94644.13;5035459;28;20709;-71
2021/12/02 09:48:00;;;;;;;0.53;0.53;;;;;;;6.95;88.59;94635.06;5035498;28;20231;-71
2021/12/02 09:50:32;;;;;;;0.83;0.83;;;;;;;7.19;88.61;94636.38;5036169;28;20205;-71
2021/12/02 09:53:06;;;;;;;0.83;0.57;;;;;;;6.84;88.66;94638.22;5035200;28;20315;-71
2021/12/02 09:55:36;;;;;;;0.83;0.60;;;;;;;6.84;87.71;94638.22;5036205;28;20862;-71
2021/12/02 09:58:06;;;;;;;0.90;0.70;;;;;;;6.78;87.60;94638.19;5036419;28;20220;-71
2021/12/02 10:00:39;;;;;;;0.40;0.40;;;;;;;6.78;88.34;94632.94;5035555;28;20205;-71
2021/12/02 10:03:17;;;;;;;0.50;0.50;;;;;;;6.99;88.03;94630.25;5035277;28;20291;-71
2021/12/02 10:05:49;;;;;;;2.97;1.33;;;;;;;6.91;87.99;94627.78;5036000;28;20220;-71
2021/12/02 10:08:22;;;;;;;1.60;1.13;;;;;;;7.43;86.39;94632.25;5035504;28;20259;-71
2021/12/02 10:10:53;;;;;;;1.60;0.50;;;;;;;7.09;86.50;94630.69;5035340;28;20201;-71
2021/12/02 10:13:26;;;;;;;2.07;1.13;;;;;;;7.26;87.54;94632.78;5035181;28;20227;-71
2021/12/02 10:16:05;;;;;;;0.93;0.40;;;;;;;7.66;85.79;94624.88;5036426;28;20217;-71
2021/12/02 10:18:42;;;;;;;0.93;0.60;;;;;;;7.75;84.85;94631.53;5035601;28;20205;-71
2021/12/02 10:21:19;;;;;;;0.50;0.50;;;;;;;7.60;85.55;94636.13;5035685;28;20216;-71
2021/12/02 10:23:47;;;;;;;0.90;0.90;;;;;;;7.45;84.51;94643.34;5035355;28;20577;-71
2021/12/02 10:26:18;;;;;;;0.93;0.87;;;;;;;7.63;85.28;94629.69;5035160;28;20251;-71
2021/12/02 10:28:46;;;;;;;0.83;0.67;;;;;;;7.74;84.80;94643.03;5034923;28;20696;-71
2021/12/02 10:31:19;;;;;;;0.90;0.70;;;;;;;7.65;84.11;94633.72;5035478;28;20201;-71
2021/12/02 10:33:50;;;;;;;0.47;0.47;;;;;;;7.65;84.68;94636.34;5032167;28;20382;-71
2021/12/02 10:36:29;;;;;;;1.73;1.37;;;;;;;7.65;83.37;94638.97;5035811;28;20248;-71
2021/12/02 10:38:58;;;;;;;2.73;0.63;;;;;;;7.34;84.68;94635.22;5037266;28;20201;-72
2021/12/02 10:41:27;;;;;;;1.27;0.70;;;;;;;7.57;83.64;94620.78;5038190;28;20205;-70
2021/12/02 10:44:18;;;;;;;0.50;0.50;;;;;;;7.76;83.34;94627.09;5037279;28;20213;-74
2021/12/02 10:47:01;;;;;;;0.90;0.63;;;;;;;7.77;83.10;94616.41;5032608;28;21077;-74
2021/12/02 10:49:32;;;;;;;0.53;0.53;;;;;;;7.53;82.15;94616.94;5041260;28;20220;-71
2021/12/02 10:52:03;;;;;;;0.40;0.40;;;;;;;7.54;82.45;94604.66;5040876;28;20236;-72
2021/12/02 10:54:32;;;;;;;0.60;0.60;;;;;;;7.34;82.90;94604.63;5046443;28;20260;-69
2021/12/02 10:57:00;;;;;;;0.93;0.67;;;;;;;7.39;82.59;94607.44;5046830;28;20213;-72
2021/12/02 10:59:30;;;;;;;0.80;0.80;;;;;;;7.79;81.98;94603.91;5048310;28;20197;-70
2021/12/02 11:01:59;;;;;;;0.80;0.80;;;;;;;8.07;81.43;94600.09;5046361;28;20664;-72
2021/12/02 11:04:27;;;;;;;0.50;0.50;;;;;;;7.97;81.85;94591.03;5044756;28;20231;-73
2021/12/02 11:07:01;;;;;;;5.87;1.10;;;;;;;7.88;81.41;94587.78;5046322;28;20232;-72
2021/12/02 11:09:29;;;;;;;0.87;0.87;;;;;;;7.81;82.27;94582.72;5048287;28;20220;-72
2021/12/02 11:12:08;;;;;;;0.57;0.50;;;;;;;7.77;81.89;94594.63;5047766;28;20229;-73
2021/12/02 11:14:34;;;;;;;1.40;0.97;;;;;;;7.65;82.88;94588.34;5046781;28;20228;-72
2021/12/02 11:17:08;;;;;;;2.07;1.00;;;;;;;8.07;81.61;94592.25;5048008;28;20647;-72
2021/12/02 11:19:35;;;;;;;1.63;1.03;;;;;;;7.80;81.78;94595.03;5047089;28;20201;-71
2021/12/02 11:22:07;;;;;;;0.80;0.67;;;;;;;8.47;80.57;94583.38;5045186;28;20254;-70
2021/12/02 11:24:35;;;;;;;1.67;0.97;;;;;;;8.55;79.92;94581.34;5042620;28;20229;-73
2021/12/02 11:27:17;;;;;;;1.10;0.90;;;;;;;8.88;79.59;94574.19;5042931;28;20213;-72
2021/12/02 11:30:07;;;;;;;0.70;0.70;;;;;;;9.09;77.62;94568.66;5042855;28;20212;-73
2021/12/02 11:32:43;;;;;;;0.70;0.70;;;;;;;8.51;78.48;94568.81;5036019;28;20228;-71
2021/12/02 11:35:20;;;;;;;0.97;0.80;;;;;;;8.35;78.88;94565.81;5043113;28;20282;-70
2021/12/02 11:37:51;;;;;;;1.43;1.10;;;;;;;8.61;78.72;94572.63;5041320;28;20205;-72
2021/12/02 11:40:20;;;;;;;1.43;0.67;;;;;;;8.39;77.79;94575.72;5040063;28;20209;-70
2021/12/02 11:42:48;;;;;;;0.20;0.20;;;;;;;8.02;77.44;94572.88;5042618;28;20209;-71
2021/12/02 11:45:16;;;;;;;0.37;0.37;;;;;;;7.94;77.16;94573.88;5042078;28;20411;-67
2021/12/02 11:47:44;;;;;;;0.40;0.40;;;;;;;7.74;77.07;94563.56;5040472;28;20198;-68
2021/12/02 11:50:13;;;;;;;0.30;0.30;;;;;;;8.19;78.21;94574.09;5040279;28;20215;-71
2021/12/02 11:52:40;;;;;;;0.70;0.70;;;;;;;7.81;77.30;94569.63;5038075;28;20228;-70
2021/12/02 11:55:11;;;;;;;0.50;0.50;;;;;;;7.94;77.62;94570.44;5037583;28;20221;-70
2021/12/02 11:57:38;;;;;;;1.13;0.60;;;;;;;7.88;77.54;94561.56;5037285;28;20205;-71
2021/12/02 12:00:09;;;;;;;1.03;0.93;;;;;;;8.01;78.07;94566.00;5037248;28;20692;-71
2021/12/02 12:02:37;;;;;;;0.43;0.43;;;;;;;8.06;78.37;94564.38;5036858;28;20527;-70
2021/12/02 12:05:06;;;;;;;0.83;0.73;;;;;;;7.98;78.81;94555.91;5037392;28;20578;-70
2021/12/02 12:07:43;;;;;;;2.13;0.80;;;;;;;8.24;77.87;94551.50;5037070;28;20208;-70
2021/12/02 12:10:20;;;;;;;1.60;0.90;;;;;;;8.18;78.41;94551.50;5036908;28;20205;-70
2021/12/02 12:12:48;;;;;;;0.53;0.40;;;;;;;7.84;77.87;94548.25;5036857;28;20228;-70
2021/12/02 12:15:37;;;;;;;0.73;0.73;;;;;;;8.13;78.94;94538.16;5037165;28;20227;-70
2021/12/02 12:18:06;;;;;;;0.80;0.80;;;;;;;7.77;79.66;94544.81;5037398;28;20572;-70
2021/12/02 12:20:56;;;;;;;0.60;0.60;;;;;;;8.01;79.85;94545.81;5037313;28;20205;-70
2021/12/02 12:23:32;;;;;;;0.63;0.63;;;;;;;8.05;80.12;94548.84;5035769;28;20200;-70
2021/12/02 12:26:19;;;;;;;0.83;0.80;;;;;;;7.69;82.20;94581.69;5036820;28;20233;-70